Aeroporto :
LOGIN :

Iscrizione | Disclaimer

   EN    FR    IT 

 










Sommario :    VFR   VFR Marginale   IFR   IFR Intensivo   IFR Molto Intensivo
Visibilità : 
Base nubi : 
>= 8 km
>= 3000ft
5 / 8 km
1000 / 3000 ft
1500m / 5 km
500 / 1000 ft
800 / 1500m
200 / 500 ft
< 800m
< 200 ft
Simboli :   Temporali  Nebbia  Neve Forte  Precipitazioni Forti  Vento > 20 kt
SIGMETs :   Varie  Temporali  Ghiacco  Turbolenza  Onda orograficha  Ceneri Vulcaniche






- Altitudine del aeroporto : 3360 ft
- Codice IATA : QSF


DAAS - 8 Mai 45

ULTIMO METAR :
  • 032100Z 33005KT 9999 BKN026 08/06 Q1016

METARs OBSOLETI :
  • 032000Z 34009KT 9999 BKN026 08/06 Q1015
  • 031900Z 36013KT 9999 BKN026 08/05 Q1014
  • 031800Z 36011KT 9999 BKN026 08/05 Q1013

TAF TAF DAAS
Valido dal 03 a 18 ore il 04 a 18 ore UTC


031700Z 0318/0418 02014KT 9999 FEW016 SCT026
TEMPO 0318/0324 FEW020CB
PROB30
TEMPO 0318/0322 02015G25KT 4000 -TSRA
BECMG 0320/0323 30008KT



MetMap, La meteo Aeronautica in un colpo d'occhio ! - Copyright ORBIFLY Dicembre 2007 - Disclaimer

ORBIFLY MET'MAP TEAM :

Programmazione e sviluppo : Alexandra Zaïnal
Concezione : Baudouin d'Aumeries
Aiuto per la programmazione : Marc-Olivier Méhu
Supporto tecnico e logistico : Manuel Goepfert
Aiuto per la traduzione : Arnaldo La Scala

Contatto : metmap@orbifly.com




FONTI E CREDITI :

   NOAA